Whitewood, VA (24657)

11:07 AM EDT on May 30, 2015 (GMT -0400)
Tazewell County | | Change Station
CLOSE
Current Station
Airport
Location: Richlands,
Elevation: 2651 ft
Nearby Weather Stations

Elev 2651 ft 37.06 °N, 81.80 °W | Updated 12 minutes ago

Partly Cloudy
Partly Cloudy
73 °F
Feels Like 73 °F
N
0
Wind Variable Wind from North

Today
High -- | Low -- °F
--% Chance of Precip.
Yesterday
High -- | Low -- °F
Precip. -- in
6:09 AM 8:40 PM
Waxing Gibbous, 90% visible
Pressure 30.26 in
Visibility 10.0 miles
Clouds Scattered Clouds 7000 ft
Dew Point 61 °F
Humidity 65%
Rainfall 0.00 in
Snow Depth Not available.
UV 7 out of 12
Pollen 7.20 out of 12
Air Quality Not available.
Flu Activity Sporadic
METAR KJFZ 301455Z AUTO 00000KT 10SM SCT070 23/16 A3026 RMK AO2 T02300161

More Conditions Fewer Conditions

Pressure 30.26 in
Visibility 10.0 miles
Clouds Scattered Clouds 7000 ft
Dew Point 61 °F
Humidity 65%
Rainfall 0.00 in
Snow Depth Not available.
UV 7 out of 12
Pollen 7.20 out of 12
Air Quality Not available.
Flu Activity Sporadic
METAR KJFZ 301455Z AUTO 00000KT 10SM SCT070 23/16 A3026 RMK AO2 T02300161

More Conditions Fewer Conditions

10-Day Weather Forecast

Almanac

Astronomy

May. 30, 2015 Rise Set
Actual Time
Civil Twilight
Nautical Twilight
Astronomical Twilight
Moon
Length of Visible Light
Length of Day
Tomorrow will be .
, % of the Moon is Illuminated

Today's Extremes

State Highs State Lows

Community

WunderPhotos

Upload Photos

1,825,541 photos uploaded!

WunderBlogs® & News

Nearby

Air Quality

  Air Quality AQ Index Pollutant
Not available.

Snow Depth

Station Depth Elevation

Earthquake Activity

City Distance Mag. Time & Date
Minimum magnitude displayed is 2.5.

Coastal Water Temperatures

Place Temperature

Stations

Nearby Weather Stations

Station Location Temp. Windchill Dew Point Humidity Wind Precip. Elev Updated Type